sensor_id;sensor_type;location;lat;lon;timestamp;P1;durP1;ratioP1;P2;durP2;ratioP2
12812;SDS011;6471;50.932;6.934;2023-06-22T00:00:51;3.67;;;3.30;;
12812;SDS011;6471;50.932;6.934;2023-06-22T00:03:17;4.37;;;3.60;;
12812;SDS011;6471;50.932;6.934;2023-06-22T00:05:44;4.10;;;3.70;;
12812;SDS011;6471;50.932;6.934;2023-06-22T00:08:10;3.50;;;3.20;;
12812;SDS011;6471;50.932;6.934;2023-06-22T00:10:36;3.83;;;3.30;;
12812;SDS011;6471;50.932;6.934;2023-06-22T00:13:21;3.47;;;3.17;;
12812;SDS011;6471;50.932;6.934;2023-06-22T00:15:47;4.27;;;3.20;;
12812;SDS011;6471;50.932;6.934;2023-06-22T00:18:13;3.90;;;3.50;;
12812;SDS011;6471;50.932;6.934;2023-06-22T00:20:41;3.30;;;3.00;;
12812;SDS011;6471;50.932;6.934;2023-06-22T00:23:07;3.53;;;3.23;;
12812;SDS011;6471;50.932;6.934;2023-06-22T00:25:37;3.57;;;3.27;;
12812;SDS011;6471;50.932;6.934;2023-06-22T00:28:06;3.83;;;3.47;;
12812;SDS011;6471;50.932;6.934;2023-06-22T00:30:33;3.10;;;2.80;;
12812;SDS011;6471;50.932;6.934;2023-06-22T00:32:59;3.30;;;2.90;;
12812;SDS011;6471;50.932;6.934;2023-06-22T00:35:26;3.30;;;2.90;;
12812;SDS011;6471;50.932;6.934;2023-06-22T00:37:56;3.43;;;3.10;;
12812;SDS011;6471;50.932;6.934;2023-06-22T00:40:26;3.70;;;3.27;;
12812;SDS011;6471;50.932;6.934;2023-06-22T00:42:52;3.50;;;3.20;;
12812;SDS011;6471;50.932;6.934;2023-06-22T00:45:18;3.50;;;3.20;;
12812;SDS011;6471;50.932;6.934;2023-06-22T00:57:10;3.40;;;3.10;;
12812;SDS011;6471;50.932;6.934;2023-06-22T01:03:08;3.10;;;2.70;;
12812;SDS011;6471;50.932;6.934;2023-06-22T01:11:16;2.60;;;2.40;;
12812;SDS011;6471;50.932;6.934;2023-06-22T01:16:23;2.70;;;2.50;;
12812;SDS011;6471;50.932;6.934;2023-06-22T01:18:55;3.10;;;2.80;;
12812;SDS011;6471;50.932;6.934;2023-06-22T01:21:22;2.53;;;2.33;;
12812;SDS011;6471;50.932;6.934;2023-06-22T01:29:13;3.00;;;2.70;;
12812;SDS011;6471;50.932;6.934;2023-06-22T01:31:43;2.83;;;2.63;;
12812;SDS011;6471;50.932;6.934;2023-06-22T01:34:12;2.73;;;2.53;;
12812;SDS011;6471;50.932;6.934;2023-06-22T01:36:39;2.70;;;2.50;;
12812;SDS011;6471;50.932;6.934;2023-06-22T01:39:05;2.67;;;2.47;;
12812;SDS011;6471;50.932;6.934;2023-06-22T01:41:33;2.33;;;2.13;;
12812;SDS011;6471;50.932;6.934;2023-06-22T01:44:00;3.00;;;2.70;;
12812;SDS011;6471;50.932;6.934;2023-06-22T01:46:26;2.70;;;2.50;;
12812;SDS011;6471;50.932;6.934;2023-06-22T01:48:52;2.70;;;2.50;;
12812;SDS011;6471;50.932;6.934;2023-06-22T01:54:22;3.50;;;3.00;;
12812;SDS011;6471;50.932;6.934;2023-06-22T01:56:48;3.77;;;3.37;;
12812;SDS011;6471;50.932;6.934;2023-06-22T01:59:20;3.83;;;2.87;;
12812;SDS011;6471;50.932;6.934;2023-06-22T02:02:00;3.53;;;2.80;;
12812;SDS011;6471;50.932;6.934;2023-06-22T02:04:29;3.53;;;3.23;;
12812;SDS011;6471;50.932;6.934;2023-06-22T02:06:58;3.27;;;2.97;;
12812;SDS011;6471;50.932;6.934;2023-06-22T02:09:26;3.30;;;3.00;;
12812;SDS011;6471;50.932;6.934;2023-06-22T02:11:54;3.10;;;2.77;;
12812;SDS011;6471;50.932;6.934;2023-06-22T02:14:22;2.80;;;2.60;;
12812;SDS011;6471;50.932;6.934;2023-06-22T02:16:52;3.13;;;2.83;;
12812;SDS011;6471;50.932;6.934;2023-06-22T02:19:37;3.37;;;3.07;;
12812;SDS011;6471;50.932;6.934;2023-06-22T02:25:00;3.03;;;2.60;;
12812;SDS011;6471;50.932;6.934;2023-06-22T02:33:38;2.90;;;2.60;;
12812;SDS011;6471;50.932;6.934;2023-06-22T02:54:29;2.77;;;2.57;;
12812;SDS011;6471;50.932;6.934;2023-06-22T02:56:56;3.13;;;2.80;;
12812;SDS011;6471;50.932;6.934;2023-06-22T02:59:22;2.63;;;2.43;;
12812;SDS011;6471;50.932;6.934;2023-06-22T03:01:49;2.70;;;2.30;;
12812;SDS011;6471;50.932;6.934;2023-06-22T03:04:15;2.87;;;2.57;;
12812;SDS011;6471;50.932;6.934;2023-06-22T03:06:59;2.90;;;2.60;;
12812;SDS011;6471;50.932;6.934;2023-06-22T03:09:38;2.70;;;2.50;;
12812;SDS011;6471;50.932;6.934;2023-06-22T03:22:16;2.77;;;2.57;;
12812;SDS011;6471;50.932;6.934;2023-06-22T03:27:51;2.60;;;2.40;;
12812;SDS011;6471;50.932;6.934;2023-06-22T03:42:54;2.40;;;2.20;;
12812;SDS011;6471;50.932;6.934;2023-06-22T03:45:26;2.40;;;2.20;;
12812;SDS011;6471;50.932;6.934;2023-06-22T03:48:05;2.37;;;2.13;;
12812;SDS011;6471;50.932;6.934;2023-06-22T03:50:40;2.43;;;2.20;;
12812;SDS011;6471;50.932;6.934;2023-06-22T03:53:09;2.67;;;2.43;;
12812;SDS011;6471;50.932;6.934;2023-06-22T03:55:42;2.63;;;2.43;;
12812;SDS011;6471;50.932;6.934;2023-06-22T03:58:23;2.57;;;2.37;;
12812;SDS011;6471;50.932;6.934;2023-06-22T04:01:08;2.73;;;2.53;;
12812;SDS011;6471;50.932;6.934;2023-06-22T04:03:55;3.13;;;2.83;;
12812;SDS011;6471;50.932;6.934;2023-06-22T04:06:29;2.97;;;2.70;;
12812;SDS011;6471;50.932;6.934;2023-06-22T04:08:58;3.00;;;2.70;;
12812;SDS011;6471;50.932;6.934;2023-06-22T04:11:47;2.90;;;2.70;;
12812;SDS011;6471;50.932;6.934;2023-06-22T04:14:19;2.67;;;2.47;;
12812;SDS011;6471;50.932;6.934;2023-06-22T04:16:48;3.60;;;3.30;;
12812;SDS011;6471;50.932;6.934;2023-06-22T04:19:19;3.43;;;3.13;;
12812;SDS011;6471;50.932;6.934;2023-06-22T04:21:56;3.40;;;3.10;;
12812;SDS011;6471;50.932;6.934;2023-06-22T04:24:29;4.37;;;3.60;;
12812;SDS011;6471;50.932;6.934;2023-06-22T04:27:05;3.63;;;3.20;;
12812;SDS011;6471;50.932;6.934;2023-06-22T04:29:42;3.80;;;3.40;;
12812;SDS011;6471;50.932;6.934;2023-06-22T04:32:26;3.50;;;3.20;;
12812;SDS011;6471;50.932;6.934;2023-06-22T04:34:55;3.90;;;3.50;;
12812;SDS011;6471;50.932;6.934;2023-06-22T04:37:22;3.80;;;3.50;;
12812;SDS011;6471;50.932;6.934;2023-06-22T04:39:51;3.30;;;3.00;;
12812;SDS011;6471;50.932;6.934;2023-06-22T04:47:59;4.40;;;3.50;;
12812;SDS011;6471;50.932;6.934;2023-06-22T04:53:14;3.50;;;3.20;;
12812;SDS011;6471;50.932;6.934;2023-06-22T04:55:56;3.57;;;3.23;;
12812;SDS011;6471;50.932;6.934;2023-06-22T04:58:56;3.37;;;3.07;;
12812;SDS011;6471;50.932;6.934;2023-06-22T05:08:11;3.80;;;3.40;;
12812;SDS011;6471;50.932;6.934;2023-06-22T05:13:51;3.40;;;3.07;;
12812;SDS011;6471;50.932;6.934;2023-06-22T05:16:28;4.00;;;3.60;;
12812;SDS011;6471;50.932;6.934;2023-06-22T05:19:20;3.90;;;3.50;;
12812;SDS011;6471;50.932;6.934;2023-06-22T05:22:31;4.37;;;3.93;;
12812;SDS011;6471;50.932;6.934;2023-06-22T05:25:25;4.43;;;4.03;;
12812;SDS011;6471;50.932;6.934;2023-06-22T05:27:57;4.40;;;4.00;;
12812;SDS011;6471;50.932;6.934;2023-06-22T06:16:29;5.90;;;5.40;;
12812;SDS011;6471;50.932;6.934;2023-06-22T06:19:07;6.00;;;5.50;;
12812;SDS011;6471;50.932;6.934;2023-06-22T06:21:39;5.40;;;4.90;;
12812;SDS011;6471;50.932;6.934;2023-06-22T07:45:25;9.05;;;5.50;;
12812;SDS011;6471;50.932;6.934;2023-06-22T07:48:15;6.05;;;5.45;;
12812;SDS011;6471;50.932;6.934;2023-06-22T07:51:11;5.80;;;5.20;;
12812;SDS011;6471;50.932;6.934;2023-06-22T07:53:48;6.85;;;6.22;;
12812;SDS011;6471;50.932;6.934;2023-06-22T07:56:24;6.25;;;5.68;;
12812;SDS011;6471;50.932;6.934;2023-06-22T07:59:05;7.05;;;6.28;;
12812;SDS011;6471;50.932;6.934;2023-06-22T08:01:36;6.60;;;5.60;;
12812;SDS011;6471;50.932;6.934;2023-06-22T08:04:23;6.28;;;5.60;;
12812;SDS011;6471;50.932;6.934;2023-06-22T08:06:52;6.38;;;5.70;;
12812;SDS011;6471;50.932;6.934;2023-06-22T08:09:21;7.30;;;6.60;;
12812;SDS011;6471;50.932;6.934;2023-06-22T08:12:05;7.78;;;6.53;;
12812;SDS011;6471;50.932;6.934;2023-06-22T08:14:58;5.85;;;5.25;;
12812;SDS011;6471;50.932;6.934;2023-06-22T11:04:54;7.97;;;7.10;;
12812;SDS011;6471;50.932;6.934;2023-06-22T11:10:35;6.87;;;5.93;;
12812;SDS011;6471;50.932;6.934;2023-06-22T11:25:27;9.53;;;8.53;;
12812;SDS011;6471;50.932;6.934;2023-06-22T11:28:17;8.50;;;7.70;;
12812;SDS011;6471;50.932;6.934;2023-06-22T11:37:15;7.53;;;6.70;;
12812;SDS011;6471;50.932;6.934;2023-06-22T11:40:00;6.77;;;6.07;;
12812;SDS011;6471;50.932;6.934;2023-06-22T11:46:13;9.13;;;8.13;;
12812;SDS011;6471;50.932;6.934;2023-06-22T12:01:53;9.70;;;8.70;;
12812;SDS011;6471;50.932;6.934;2023-06-22T12:07:56;8.13;;;7.33;;
12812;SDS011;6471;50.932;6.934;2023-06-22T12:14:10;8.23;;;7.43;;
12812;SDS011;6471;50.932;6.934;2023-06-22T12:25:50;8.75;;;7.85;;
12812;SDS011;6471;50.932;6.934;2023-06-22T12:28:55;9.68;;;8.68;;
12812;SDS011;6471;50.932;6.934;2023-06-22T12:31:36;9.88;;;8.88;;
12812;SDS011;6471;50.932;6.934;2023-06-22T13:16:15;11.60;;;9.43;;
12812;SDS011;6471;50.932;6.934;2023-06-22T13:18:42;10.00;;;9.00;;
12812;SDS011;6471;50.932;6.934;2023-06-22T13:21:08;10.55;;;9.45;;
12812;SDS011;6471;50.932;6.934;2023-06-22T13:23:34;11.13;;;9.50;;
12812;SDS011;6471;50.932;6.934;2023-06-22T13:26:00;10.77;;;9.55;;
12812;SDS011;6471;50.932;6.934;2023-06-22T13:28:32;10.93;;;8.43;;
12812;SDS011;6471;50.932;6.934;2023-06-22T13:30:59;9.80;;;8.57;;
12812;SDS011;6471;50.932;6.934;2023-06-22T13:33:25;9.45;;;7.85;;
12812;SDS011;6471;50.932;6.934;2023-06-22T13:35:51;9.02;;;8.18;;
12812;SDS011;6471;50.932;6.934;2023-06-22T13:38:17;10.27;;;8.85;;
12812;SDS011;6471;50.932;6.934;2023-06-22T13:40:43;9.35;;;7.95;;
12812;SDS011;6471;50.932;6.934;2023-06-22T13:43:09;8.25;;;7.25;;
12812;SDS011;6471;50.932;6.934;2023-06-22T13:45:35;9.35;;;8.43;;
12812;SDS011;6471;50.932;6.934;2023-06-22T13:48:02;8.90;;;7.45;;
12812;SDS011;6471;50.932;6.934;2023-06-22T13:50:28;8.85;;;6.93;;
12812;SDS011;6471;50.932;6.934;2023-06-22T13:52:56;7.53;;;6.72;;
12812;SDS011;6471;50.932;6.934;2023-06-22T13:55:22;7.00;;;6.30;;
12812;SDS011;6471;50.932;6.934;2023-06-22T13:57:48;6.30;;;5.57;;
12812;SDS011;6471;50.932;6.934;2023-06-22T14:00:16;9.00;;;6.88;;
12812;SDS011;6471;50.932;6.934;2023-06-22T14:02:42;7.20;;;6.50;;
12812;SDS011;6471;50.932;6.934;2023-06-22T14:05:09;7.18;;;5.80;;
12812;SDS011;6471;50.932;6.934;2023-06-22T14:07:36;5.57;;;5.07;;
12812;SDS011;6471;50.932;6.934;2023-06-22T14:10:02;5.32;;;4.82;;
12812;SDS011;6471;50.932;6.934;2023-06-22T14:12:29;6.68;;;4.93;;
12812;SDS011;6471;50.932;6.934;2023-06-22T14:14:57;6.53;;;5.40;;
12812;SDS011;6471;50.932;6.934;2023-06-22T14:17:23;6.18;;;5.20;;
12812;SDS011;6471;50.932;6.934;2023-06-22T14:19:51;6.13;;;4.70;;
12812;SDS011;6471;50.932;6.934;2023-06-22T14:22:20;5.07;;;4.68;;
12812;SDS011;6471;50.932;6.934;2023-06-22T14:24:47;5.45;;;4.95;;
12812;SDS011;6471;50.932;6.934;2023-06-22T14:27:13;6.15;;;5.40;;
12812;SDS011;6471;50.932;6.934;2023-06-22T14:29:55;7.35;;;5.03;;
12812;SDS011;6471;50.932;6.934;2023-06-22T14:45:27;5.55;;;4.95;;
12812;SDS011;6471;50.932;6.934;2023-06-22T14:57:31;5.90;;;5.10;;
12812;SDS011;6471;50.932;6.934;2023-06-22T16:04:31;14.90;;;12.20;;
12812;SDS011;6471;50.932;6.934;2023-06-22T16:06:57;12.47;;;11.20;;
12812;SDS011;6471;50.932;6.934;2023-06-22T16:09:23;15.47;;;12.60;;
12812;SDS011;6471;50.932;6.934;2023-06-22T16:11:52;13.67;;;12.03;;
12812;SDS011;6471;50.932;6.934;2023-06-22T16:14:43;13.13;;;11.50;;
12812;SDS011;6471;50.932;6.934;2023-06-22T16:49:29;8.33;;;7.53;;
12812;SDS011;6471;50.932;6.934;2023-06-22T16:52:04;7.20;;;6.60;;
12812;SDS011;6471;50.932;6.934;2023-06-22T16:54:33;8.07;;;7.33;;
12812;SDS011;6471;50.932;6.934;2023-06-22T16:56:59;7.90;;;7.20;;
12812;SDS011;6471;50.932;6.934;2023-06-22T16:59:26;9.30;;;8.13;;
12812;SDS011;6471;50.932;6.934;2023-06-22T17:02:15;8.37;;;7.63;;
12812;SDS011;6471;50.932;6.934;2023-06-22T17:39:01;4.50;;;4.07;;
12812;SDS011;6471;50.932;6.934;2023-06-22T17:56:32;3.80;;;3.50;;
12812;SDS011;6471;50.932;6.934;2023-06-22T18:05:31;5.30;;;4.80;;
12812;SDS011;6471;50.932;6.934;2023-06-22T18:08:10;5.63;;;5.13;;
12812;SDS011;6471;50.932;6.934;2023-06-22T18:11:24;5.80;;;5.30;;
12812;SDS011;6471;50.932;6.934;2023-06-22T18:14:04;6.13;;;5.37;;
12812;SDS011;6471;50.932;6.934;2023-06-22T18:16:32;6.00;;;5.50;;
12812;SDS011;6471;50.932;6.934;2023-06-22T18:18:59;5.87;;;5.37;;
12812;SDS011;6471;50.932;6.934;2023-06-22T18:21:25;7.80;;;7.10;;
12812;SDS011;6471;50.932;6.934;2023-06-22T18:23:52;11.93;;;10.70;;
12812;SDS011;6471;50.932;6.934;2023-06-22T18:26:19;13.33;;;12.00;;
12812;SDS011;6471;50.932;6.934;2023-06-22T18:28:46;14.03;;;12.73;;
12812;SDS011;6471;50.932;6.934;2023-06-22T18:31:13;15.50;;;14.00;;
12812;SDS011;6471;50.932;6.934;2023-06-22T18:33:39;14.67;;;13.27;;
12812;SDS011;6471;50.932;6.934;2023-06-22T18:36:05;15.10;;;13.70;;
12812;SDS011;6471;50.932;6.934;2023-06-22T18:38:32;14.40;;;13.00;;
12812;SDS011;6471;50.932;6.934;2023-06-22T18:40:58;13.33;;;12.13;;
12812;SDS011;6471;50.932;6.934;2023-06-22T18:43:24;13.20;;;12.00;;
12812;SDS011;6471;50.932;6.934;2023-06-22T18:45:50;11.83;;;10.73;;
12812;SDS011;6471;50.932;6.934;2023-06-22T18:48:23;14.03;;;12.53;;
12812;SDS011;6471;50.932;6.934;2023-06-22T18:50:52;12.30;;;11.10;;
12812;SDS011;6471;50.932;6.934;2023-06-22T18:53:25;12.23;;;11.03;;
12812;SDS011;6471;50.932;6.934;2023-06-22T18:55:51;10.97;;;9.97;;
12812;SDS011;6471;50.932;6.934;2023-06-22T18:58:22;13.67;;;12.27;;
12812;SDS011;6471;50.932;6.934;2023-06-22T19:00:52;16.10;;;14.50;;
12812;SDS011;6471;50.932;6.934;2023-06-22T19:03:28;16.73;;;15.03;;
12812;SDS011;6471;50.932;6.934;2023-06-22T19:05:58;16.57;;;15.07;;
12812;SDS011;6471;50.932;6.934;2023-06-22T19:08:24;20.83;;;18.83;;
12812;SDS011;6471;50.932;6.934;2023-06-22T19:10:51;19.50;;;17.60;;
12812;SDS011;6471;50.932;6.934;2023-06-22T19:13:27;21.00;;;18.90;;
12812;SDS011;6471;50.932;6.934;2023-06-22T19:16:00;21.53;;;19.50;;
12812;SDS011;6471;50.932;6.934;2023-06-22T19:18:33;19.57;;;17.53;;
12812;SDS011;6471;50.932;6.934;2023-06-22T19:21:06;13.77;;;12.37;;
12812;SDS011;6471;50.932;6.934;2023-06-22T19:23:33;11.93;;;10.73;;
12812;SDS011;6471;50.932;6.934;2023-06-22T19:26:02;9.47;;;8.57;;
12812;SDS011;6471;50.932;6.934;2023-06-22T19:28:33;9.47;;;8.47;;
12812;SDS011;6471;50.932;6.934;2023-06-22T19:31:03;8.20;;;7.40;;
12812;SDS011;6471;50.932;6.934;2023-06-22T19:33:29;7.73;;;6.80;;
12812;SDS011;6471;50.932;6.934;2023-06-22T19:35:56;6.43;;;5.83;;
12812;SDS011;6471;50.932;6.934;2023-06-22T19:38:23;6.10;;;4.30;;
12812;SDS011;6471;50.932;6.934;2023-06-22T19:40:50;4.90;;;4.13;;
12812;SDS011;6471;50.932;6.934;2023-06-22T19:43:17;4.67;;;4.03;;
12812;SDS011;6471;50.932;6.934;2023-06-22T19:45:43;5.07;;;4.57;;
12812;SDS011;6471;50.932;6.934;2023-06-22T19:48:10;5.43;;;4.93;;
12812;SDS011;6471;50.932;6.934;2023-06-22T19:50:37;5.80;;;5.30;;
12812;SDS011;6471;50.932;6.934;2023-06-22T19:53:08;6.60;;;5.80;;
12812;SDS011;6471;50.932;6.934;2023-06-22T19:55:39;7.73;;;6.50;;
12812;SDS011;6471;50.932;6.934;2023-06-22T19:58:07;7.30;;;6.60;;
12812;SDS011;6471;50.932;6.934;2023-06-22T20:00:35;8.67;;;7.77;;
12812;SDS011;6471;50.932;6.934;2023-06-22T20:03:02;10.80;;;8.00;;
12812;SDS011;6471;50.932;6.934;2023-06-22T20:05:28;11.63;;;8.87;;
12812;SDS011;6471;50.932;6.934;2023-06-22T20:07:54;10.70;;;8.93;;
12812;SDS011;6471;50.932;6.934;2023-06-22T20:10:21;10.27;;;9.17;;
12812;SDS011;6471;50.932;6.934;2023-06-22T20:12:51;12.07;;;9.63;;
12812;SDS011;6471;50.932;6.934;2023-06-22T20:18:13;10.90;;;8.47;;
12812;SDS011;6471;50.932;6.934;2023-06-22T20:20:49;10.40;;;9.30;;
12812;SDS011;6471;50.932;6.934;2023-06-22T20:23:20;11.17;;;8.83;;
12812;SDS011;6471;50.932;6.934;2023-06-22T20:25:47;9.27;;;8.00;;
12812;SDS011;6471;50.932;6.934;2023-06-22T20:28:14;10.30;;;7.90;;
12812;SDS011;6471;50.932;6.934;2023-06-22T20:30:41;10.17;;;7.93;;
12812;SDS011;6471;50.932;6.934;2023-06-22T20:33:14;12.60;;;8.40;;
12812;SDS011;6471;50.932;6.934;2023-06-22T20:35:41;11.40;;;8.63;;
12812;SDS011;6471;50.932;6.934;2023-06-22T20:38:10;12.33;;;9.83;;
12812;SDS011;6471;50.932;6.934;2023-06-22T20:40:38;13.27;;;9.70;;
12812;SDS011;6471;50.932;6.934;2023-06-22T20:43:07;11.77;;;10.00;;
12812;SDS011;6471;50.932;6.934;2023-06-22T20:45:34;11.83;;;9.20;;
12812;SDS011;6471;50.932;6.934;2023-06-22T20:48:00;13.00;;;10.43;;
12812;SDS011;6471;50.932;6.934;2023-06-22T20:50:27;13.73;;;11.57;;
12812;SDS011;6471;50.932;6.934;2023-06-22T20:52:55;13.70;;;11.67;;
12812;SDS011;6471;50.932;6.934;2023-06-22T20:55:21;13.53;;;12.07;;
12812;SDS011;6471;50.932;6.934;2023-06-22T20:57:48;14.77;;;12.07;;
12812;SDS011;6471;50.932;6.934;2023-06-22T21:00:14;14.00;;;12.50;;
12812;SDS011;6471;50.932;6.934;2023-06-22T21:02:41;15.60;;;13.30;;
12812;SDS011;6471;50.932;6.934;2023-06-22T21:05:09;14.80;;;13.10;;
12812;SDS011;6471;50.932;6.934;2023-06-22T21:07:35;14.97;;;12.70;;
12812;SDS011;6471;50.932;6.934;2023-06-22T21:10:02;14.10;;;12.63;;
12812;SDS011;6471;50.932;6.934;2023-06-22T21:12:28;13.40;;;12.00;;
12812;SDS011;6471;50.932;6.934;2023-06-22T21:14:54;14.63;;;11.53;;
12812;SDS011;6471;50.932;6.934;2023-06-22T21:17:21;13.13;;;11.73;;
12812;SDS011;6471;50.932;6.934;2023-06-22T21:19:47;13.20;;;11.37;;
12812;SDS011;6471;50.932;6.934;2023-06-22T21:22:13;11.13;;;9.87;;
12812;SDS011;6471;50.932;6.934;2023-06-22T21:24:40;12.57;;;10.63;;
12812;SDS011;6471;50.932;6.934;2023-06-22T21:27:06;12.17;;;10.80;;
12812;SDS011;6471;50.932;6.934;2023-06-22T21:29:32;13.97;;;12.03;;
12812;SDS011;6471;50.932;6.934;2023-06-22T21:31:58;14.47;;;12.57;;
12812;SDS011;6471;50.932;6.934;2023-06-22T21:34:25;14.40;;;12.73;;
12812;SDS011;6471;50.932;6.934;2023-06-22T21:36:51;14.63;;;12.60;;
12812;SDS011;6471;50.932;6.934;2023-06-22T21:39:17;16.80;;;14.37;;
12812;SDS011;6471;50.932;6.934;2023-06-22T21:41:43;15.40;;;12.97;;
12812;SDS011;6471;50.932;6.934;2023-06-22T21:44:09;17.17;;;13.50;;
12812;SDS011;6471;50.932;6.934;2023-06-22T21:46:35;16.27;;;13.60;;
12812;SDS011;6471;50.932;6.934;2023-06-22T21:49:01;16.93;;;13.83;;
12812;SDS011;6471;50.932;6.934;2023-06-22T21:51:27;15.13;;;13.53;;
12812;SDS011;6471;50.932;6.934;2023-06-22T21:53:53;15.67;;;13.40;;
12812;SDS011;6471;50.932;6.934;2023-06-22T21:56:20;14.87;;;13.00;;
12812;SDS011;6471;50.932;6.934;2023-06-22T21:58:46;15.53;;;13.00;;
12812;SDS011;6471;50.932;6.934;2023-06-22T22:01:12;14.10;;;12.27;;
12812;SDS011;6471;50.932;6.934;2023-06-22T22:03:38;13.57;;;11.90;;
12812;SDS011;6471;50.932;6.934;2023-06-22T22:06:08;13.40;;;11.97;;
12812;SDS011;6471;50.932;6.934;2023-06-22T22:08:34;12.63;;;10.73;;
12812;SDS011;6471;50.932;6.934;2023-06-22T22:11:01;13.30;;;11.27;;
12812;SDS011;6471;50.932;6.934;2023-06-22T22:13:27;13.07;;;11.17;;
12812;SDS011;6471;50.932;6.934;2023-06-22T22:15:53;13.80;;;11.27;;
12812;SDS011;6471;50.932;6.934;2023-06-22T22:18:19;13.70;;;11.10;;
12812;SDS011;6471;50.932;6.934;2023-06-22T22:20:45;12.27;;;11.03;;
12812;SDS011;6471;50.932;6.934;2023-06-22T22:23:11;12.60;;;11.30;;
12812;SDS011;6471;50.932;6.934;2023-06-22T22:25:38;13.70;;;12.30;;
12812;SDS011;6471;50.932;6.934;2023-06-22T22:28:07;16.13;;;13.40;;
12812;SDS011;6471;50.932;6.934;2023-06-22T22:30:33;16.90;;;15.00;;
12812;SDS011;6471;50.932;6.934;2023-06-22T22:32:59;17.23;;;14.97;;
12812;SDS011;6471;50.932;6.934;2023-06-22T22:35:25;19.27;;;16.90;;
12812;SDS011;6471;50.932;6.934;2023-06-22T22:37:51;19.53;;;16.93;;
12812;SDS011;6471;50.932;6.934;2023-06-22T22:40:17;19.00;;;16.13;;
12812;SDS011;6471;50.932;6.934;2023-06-22T22:42:44;18.87;;;16.80;;
12812;SDS011;6471;50.932;6.934;2023-06-22T22:45:10;19.43;;;16.80;;
12812;SDS011;6471;50.932;6.934;2023-06-22T22:47:36;18.97;;;16.17;;
12812;SDS011;6471;50.932;6.934;2023-06-22T22:50:02;21.20;;;17.27;;
12812;SDS011;6471;50.932;6.934;2023-06-22T22:52:28;18.37;;;16.23;;
12812;SDS011;6471;50.932;6.934;2023-06-22T22:54:55;19.17;;;16.63;;
12812;SDS011;6471;50.932;6.934;2023-06-22T22:57:21;18.50;;;14.97;;
12812;SDS011;6471;50.932;6.934;2023-06-22T22:59:47;22.20;;;18.03;;
12812;SDS011;6471;50.932;6.934;2023-06-22T23:02:13;17.90;;;15.73;;
12812;SDS011;6471;50.932;6.934;2023-06-22T23:04:40;16.90;;;14.90;;
12812;SDS011;6471;50.932;6.934;2023-06-22T23:07:06;19.27;;;15.40;;
12812;SDS011;6471;50.932;6.934;2023-06-22T23:09:32;15.07;;;13.17;;
12812;SDS011;6471;50.932;6.934;2023-06-22T23:11:59;15.20;;;13.30;;
12812;SDS011;6471;50.932;6.934;2023-06-22T23:14:27;15.07;;;13.03;;
12812;SDS011;6471;50.932;6.934;2023-06-22T23:16:53;14.73;;;12.40;;
12812;SDS011;6471;50.932;6.934;2023-06-22T23:19:21;15.37;;;12.90;;
12812;SDS011;6471;50.932;6.934;2023-06-22T23:21:47;16.27;;;12.00;;
12812;SDS011;6471;50.932;6.934;2023-06-22T23:24:13;14.53;;;11.70;;
12812;SDS011;6471;50.932;6.934;2023-06-22T23:26:39;13.33;;;11.07;;
12812;SDS011;6471;50.932;6.934;2023-06-22T23:29:05;14.20;;;12.27;;
12812;SDS011;6471;50.932;6.934;2023-06-22T23:31:31;13.70;;;12.20;;
12812;SDS011;6471;50.932;6.934;2023-06-22T23:33:58;13.87;;;12.37;;
12812;SDS011;6471;50.932;6.934;2023-06-22T23:36:28;16.13;;;12.90;;
12812;SDS011;6471;50.932;6.934;2023-06-22T23:38:54;20.13;;;15.63;;
12812;SDS011;6471;50.932;6.934;2023-06-22T23:41:21;16.43;;;14.60;;
12812;SDS011;6471;50.932;6.934;2023-06-22T23:43:50;17.97;;;15.43;;
12812;SDS011;6471;50.932;6.934;2023-06-22T23:46:18;16.63;;;14.70;;
12812;SDS011;6471;50.932;6.934;2023-06-22T23:48:45;18.40;;;15.03;;
12812;SDS011;6471;50.932;6.934;2023-06-22T23:51:12;16.50;;;14.10;;
12812;SDS011;6471;50.932;6.934;2023-06-22T23:53:38;18.43;;;14.93;;
12812;SDS011;6471;50.932;6.934;2023-06-22T23:56:04;15.87;;;13.67;;
12812;SDS011;6471;50.932;6.934;2023-06-22T23:58:30;16.43;;;13.53;;
